createdAt,value
2019-03-27T00:02:22.823Z,20.60
2019-03-27T00:04:55.678Z,20.63
2019-03-27T00:07:26.748Z,19.97
2019-03-27T00:09:57.625Z,17.23
2019-03-27T00:12:28.500Z,18.40
2019-03-27T00:15:11.855Z,19.67
2019-03-27T00:17:31.881Z,17.60
2019-03-27T00:20:02.938Z,19.10
2019-03-27T00:22:36.900Z,17.20
2019-03-27T00:25:11.028Z,18.30
2019-03-27T00:27:41.738Z,22.80
2019-03-27T00:30:14.050Z,20.83
2019-03-27T00:32:44.846Z,18.07
2019-03-27T00:35:18.776Z,18.10
2019-03-27T00:37:49.533Z,21.50
2019-03-27T00:40:20.468Z,18.90
2019-03-27T00:42:53.131Z,17.03
2019-03-27T00:45:27.015Z,17.37
2019-03-27T00:47:57.938Z,18.30
2019-03-27T00:50:29.048Z,19.33
2019-03-27T00:53:00.260Z,21.10
2019-03-27T00:55:31.512Z,18.07
2019-03-27T00:58:02.368Z,18.00
2019-03-27T01:01:15.973Z,16.17
2019-03-27T01:03:46.967Z,20.27
2019-03-27T01:06:17.751Z,18.50
2019-03-27T01:08:48.781Z,18.03
2019-03-27T01:11:19.779Z,21.13
2019-03-27T01:13:50.594Z,20.50
2019-03-27T01:16:21.435Z,20.67
2019-03-27T01:18:52.322Z,24.23
2019-03-27T01:21:23.235Z,19.37
2019-03-27T01:23:54.218Z,20.87
2019-03-27T01:26:25.516Z,20.63
2019-03-27T01:28:56.166Z,22.30
2019-03-27T01:31:27.248Z,23.60
2019-03-27T01:33:58.035Z,22.80
2019-03-27T01:36:28.926Z,24.20
2019-03-27T01:38:59.979Z,23.10
2019-03-27T01:41:30.733Z,21.63
2019-03-27T01:44:01.603Z,22.70
2019-03-27T01:46:32.414Z,25.37
2019-03-27T01:52:08.705Z,21.37
2019-03-27T01:54:39.426Z,22.70
2019-03-27T01:57:10.827Z,23.17
2019-03-27T01:59:41.825Z,26.97
2019-03-27T02:02:13.999Z,24.57
2019-03-27T02:04:44.663Z,20.50
2019-03-27T02:07:15.561Z,24.60
2019-03-27T02:09:46.605Z,26.53
2019-03-27T02:12:17.278Z,25.83
2019-03-27T02:14:48.310Z,25.17
2019-03-27T02:17:19.355Z,29.53
2019-03-27T02:19:50.486Z,25.37
2019-03-27T02:22:21.568Z,25.47
2019-03-27T02:24:52.591Z,25.23
2019-03-27T02:27:23.819Z,27.13
2019-03-27T02:29:55.080Z,28.63
2019-03-27T02:32:26.019Z,23.33
2019-03-27T02:34:57.280Z,25.77
2019-03-27T02:37:28.579Z,24.77
2019-03-27T02:39:59.662Z,25.40
2019-03-27T02:42:30.643Z,24.23
2019-03-27T02:45:01.893Z,24.20
2019-03-27T02:47:32.900Z,27.23
2019-03-27T02:50:04.071Z,23.10
2019-03-27T02:52:35.150Z,26.07
2019-03-27T02:55:06.104Z,27.43
2019-03-27T02:57:37.954Z,23.67
2019-03-27T03:00:10.449Z,24.80
2019-03-27T03:02:41.841Z,29.63
2019-03-27T03:05:12.982Z,29.90
2019-03-27T03:07:45.223Z,28.80
2019-03-27T03:10:17.871Z,26.23
2019-03-27T03:12:48.931Z,27.57
2019-03-27T03:15:25.039Z,27.87
2019-03-27T03:17:56.030Z,26.53
2019-03-27T03:20:27.152Z,24.93
2019-03-27T03:22:58.309Z,28.50
2019-03-27T03:25:29.513Z,28.27
2019-03-27T03:28:00.578Z,26.73
2019-03-27T03:30:31.701Z,25.57
2019-03-27T03:33:02.919Z,28.23
2019-03-27T03:35:34.072Z,30.23
2019-03-27T03:38:04.979Z,27.27
2019-03-27T03:40:36.162Z,32.77
2019-03-27T03:43:07.444Z,32.10
2019-03-27T03:45:38.451Z,36.73
2019-03-27T03:48:15.945Z,28.90
2019-03-27T03:50:46.980Z,28.20
2019-03-27T03:53:18.293Z,26.43
2019-03-27T03:55:49.675Z,27.33
2019-03-27T03:58:20.899Z,30.83
2019-03-27T04:00:52.066Z,27.33
2019-03-27T04:03:26.762Z,29.40
2019-03-27T04:05:58.540Z,30.77
2019-03-27T04:08:29.614Z,29.10
2019-03-27T04:11:00.841Z,29.63
2019-03-27T04:13:31.740Z,33.17
2019-03-27T04:16:02.773Z,28.53
2019-03-27T04:18:33.965Z,27.03
2019-03-27T04:21:04.908Z,32.10
2019-03-27T04:23:36.020Z,26.90
2019-03-27T04:26:10.407Z,30.10
2019-03-27T04:28:42.318Z,29.40
2019-03-27T04:31:13.368Z,31.77
2019-03-27T04:33:44.532Z,29.07
2019-03-27T04:36:15.633Z,30.47
2019-03-27T04:38:46.887Z,29.17
2019-03-27T04:41:17.889Z,28.80
2019-03-27T04:43:49.116Z,28.10
2019-03-27T04:46:20.119Z,31.30
2019-03-27T04:48:51.082Z,28.97
2019-03-27T04:51:22.285Z,29.23
2019-03-27T04:53:53.431Z,31.20
2019-03-27T04:56:24.399Z,29.03
2019-03-27T04:58:55.388Z,32.30
2019-03-27T05:01:26.712Z,31.80
2019-03-27T05:03:57.710Z,28.63
2019-03-27T05:06:28.976Z,29.77
2019-03-27T05:09:00.524Z,34.40
2019-03-27T05:11:32.078Z,27.37
2019-03-27T05:14:03.316Z,33.07
2019-03-27T05:16:35.156Z,27.10
2019-03-27T05:19:06.426Z,31.87
2019-03-27T05:21:37.445Z,34.70
2019-03-27T05:24:08.463Z,32.83
2019-03-27T05:26:39.619Z,29.40
2019-03-27T05:29:10.648Z,30.30
2019-03-27T05:31:41.711Z,31.83
2019-03-27T05:34:12.935Z,29.93
2019-03-27T05:36:44.873Z,34.27
2019-03-27T05:39:16.013Z,31.37
2019-03-27T05:41:47.046Z,31.70
2019-03-27T05:44:17.994Z,35.13
2019-03-27T05:46:48.928Z,28.87
2019-03-27T05:49:20.301Z,33.77
2019-03-27T05:51:51.504Z,31.70
2019-03-27T05:54:22.637Z,32.07
2019-03-27T05:56:53.645Z,32.43
2019-03-27T05:59:24.664Z,32.83
2019-03-27T06:01:56.098Z,30.90
2019-03-27T06:04:27.186Z,32.33
2019-03-27T06:06:58.200Z,32.97
2019-03-27T06:09:29.647Z,30.73
2019-03-27T06:12:00.644Z,30.97
2019-03-27T06:14:31.786Z,34.27
2019-03-27T06:17:02.978Z,33.27
2019-03-27T06:19:34.030Z,29.27
2019-03-27T06:22:07.767Z,35.70
2019-03-27T06:24:41.767Z,31.10
2019-03-27T06:27:12.862Z,26.60
2019-03-27T06:29:44.212Z,24.60
2019-03-27T06:32:15.031Z,26.97
2019-03-27T06:34:46.002Z,27.23
2019-03-27T06:37:16.985Z,32.07
2019-03-27T06:39:47.723Z,27.03
2019-03-27T06:42:18.679Z,27.20
2019-03-27T06:44:50.659Z,27.93
2019-03-27T06:47:21.485Z,25.60
2019-03-27T06:49:52.602Z,26.17
2019-03-27T06:52:23.755Z,24.67
2019-03-27T06:54:54.621Z,18.97
2019-03-27T06:57:25.672Z,24.13
2019-03-27T06:59:56.482Z,22.40
2019-03-27T07:02:28.976Z,27.23
2019-03-27T07:05:00.719Z,21.33
2019-03-27T07:07:31.468Z,21.77
2019-03-27T07:10:02.278Z,17.77
2019-03-27T07:12:33.388Z,20.57
2019-03-27T07:15:04.813Z,32.27
2019-03-27T07:17:35.592Z,24.17
2019-03-27T07:20:07.684Z,27.83
2019-03-27T07:22:38.880Z,25.10
2019-03-27T07:25:10.548Z,30.43
2019-03-27T07:27:41.524Z,31.10
2019-03-27T07:30:13.340Z,24.70
2019-03-27T07:32:44.310Z,26.13
2019-03-27T07:35:15.416Z,20.73
2019-03-27T07:37:46.518Z,22.10
2019-03-27T07:40:17.446Z,39.43
2019-03-27T07:42:48.268Z,15.93
2019-03-27T07:45:19.458Z,16.60
2019-03-27T07:47:50.073Z,21.77
2019-03-27T07:50:20.918Z,17.70
2019-03-27T07:52:51.971Z,20.17
2019-03-27T07:55:22.862Z,18.03
2019-03-27T07:57:53.910Z,17.93
2019-03-27T08:00:25.146Z,18.10
2019-03-27T08:02:55.920Z,14.47
2019-03-27T08:05:27.131Z,17.00
2019-03-27T08:07:57.996Z,16.27
2019-03-27T08:10:29.408Z,13.33
2019-03-27T08:13:00.517Z,21.97
2019-03-27T08:15:31.615Z,20.23
2019-03-27T08:18:02.549Z,17.27
2019-03-27T08:20:33.437Z,20.90
2019-03-27T08:23:05.817Z,14.30
2019-03-27T08:25:37.011Z,18.67
2019-03-27T08:28:08.039Z,13.20
2019-03-27T08:30:39.104Z,13.00
2019-03-27T08:33:10.392Z,18.53
2019-03-27T08:35:41.239Z,12.20
2019-03-27T08:38:15.074Z,13.60
2019-03-27T08:40:46.342Z,13.83
2019-03-27T08:43:21.456Z,11.93
2019-03-27T08:45:50.105Z,13.60
2019-03-27T08:48:21.405Z,14.60
2019-03-27T08:50:52.585Z,12.63
2019-03-27T08:53:23.912Z,12.90
2019-03-27T08:55:54.905Z,15.43
2019-03-27T08:58:25.821Z,12.57
2019-03-27T09:00:57.273Z,11.97
2019-03-27T09:03:29.450Z,17.53
2019-03-27T09:06:00.729Z,14.90
2019-03-27T09:08:39.078Z,17.80
2019-03-27T09:11:10.064Z,14.47
2019-03-27T09:13:41.240Z,14.47
2019-03-27T09:16:12.248Z,11.80
2019-03-27T09:18:43.195Z,12.43
2019-03-27T09:21:14.255Z,16.33
2019-03-27T09:23:45.874Z,15.33
2019-03-27T09:26:17.609Z,17.33
2019-03-27T09:28:48.553Z,16.03
2019-03-27T09:31:19.504Z,14.73
2019-03-27T09:33:50.472Z,11.47
2019-03-27T09:36:22.647Z,14.13
2019-03-27T09:38:53.700Z,17.67
2019-03-27T09:41:24.697Z,11.90
2019-03-27T09:43:57.009Z,14.90
2019-03-27T09:46:28.041Z,13.60
2019-03-27T09:48:59.173Z,12.30
2019-03-27T09:51:30.163Z,13.30
2019-03-27T09:54:01.149Z,17.70
2019-03-27T09:56:32.190Z,14.13
2019-03-27T09:59:05.945Z,17.20
2019-03-27T10:01:35.842Z,23.70
2019-03-27T10:04:06.897Z,13.97
2019-03-27T10:06:38.122Z,13.73
2019-03-27T10:09:09.579Z,15.80
2019-03-27T10:11:41.645Z,13.33
2019-03-27T10:14:12.602Z,14.33
2019-03-27T10:16:43.495Z,10.90
2019-03-27T10:19:14.444Z,13.70
2019-03-27T10:21:45.398Z,14.33
2019-03-27T10:24:16.394Z,13.20
2019-03-27T10:26:47.864Z,12.50
2019-03-27T10:29:18.939Z,14.63
2019-03-27T10:31:49.800Z,12.07
2019-03-27T10:34:20.872Z,15.43
2019-03-27T10:36:52.071Z,13.77
2019-03-27T10:39:23.102Z,14.00
2019-03-27T10:41:55.121Z,13.97
2019-03-27T10:44:26.125Z,11.97
2019-03-27T10:46:57.657Z,14.80
2019-03-27T10:49:28.593Z,13.33
2019-03-27T10:51:59.471Z,12.70
2019-03-27T10:54:30.555Z,11.07
2019-03-27T10:57:01.699Z,10.97
2019-03-27T10:59:33.578Z,14.63
2019-03-27T11:02:04.951Z,17.07
2019-03-27T11:04:35.832Z,11.57
2019-03-27T11:07:06.925Z,14.00
2019-03-27T11:09:37.960Z,12.50
2019-03-27T11:12:09.974Z,14.60
2019-03-27T11:14:41.069Z,11.10
2019-03-27T11:17:12.165Z,9.80
2019-03-27T11:19:43.012Z,11.17
2019-03-27T11:22:15.029Z,9.10
2019-03-27T11:24:46.284Z,10.57
2019-03-27T11:27:17.192Z,9.03
2019-03-27T11:29:48.042Z,8.97
2019-03-27T11:32:19.073Z,9.50
2019-03-27T11:34:50.012Z,9.50
2019-03-27T11:37:21.185Z,32.43
2019-03-27T11:39:52.318Z,9.77
2019-03-27T11:42:23.178Z,11.23
2019-03-27T11:44:53.863Z,10.27
2019-03-27T11:47:24.719Z,9.63
2019-03-27T11:49:56.063Z,13.53
2019-03-27T11:52:29.525Z,9.63
2019-03-27T11:54:59.421Z,11.63
2019-03-27T11:57:31.386Z,9.17
2019-03-27T12:00:02.748Z,10.27
2019-03-27T12:02:33.693Z,9.00
2019-03-27T12:05:05.549Z,11.40
2019-03-27T12:07:37.012Z,9.70
2019-03-27T12:10:08.313Z,10.87
2019-03-27T12:12:39.292Z,10.97
2019-03-27T12:15:10.717Z,9.20
2019-03-27T12:17:42.520Z,10.53
2019-03-27T12:20:13.937Z,14.33
2019-03-27T12:22:57.325Z,8.73
2019-03-27T12:25:18.021Z,9.13
2019-03-27T12:27:49.162Z,10.97
2019-03-27T12:30:20.384Z,12.00
2019-03-27T12:32:51.709Z,11.50
2019-03-27T12:35:22.959Z,11.40
2019-03-27T12:37:54.044Z,11.27
2019-03-27T12:40:25.298Z,16.33
2019-03-27T12:42:56.972Z,11.73
2019-03-27T12:45:27.915Z,25.77
2019-03-27T12:47:58.981Z,17.00
2019-03-27T12:50:30.183Z,14.93
2019-03-27T12:53:01.362Z,17.90
2019-03-27T12:55:32.276Z,16.33
2019-03-27T12:58:07.094Z,15.53
2019-03-27T13:00:38.410Z,14.63
2019-03-27T13:03:09.613Z,19.93
2019-03-27T13:05:40.842Z,14.20
2019-03-27T13:08:12.289Z,20.10
2019-03-27T13:10:43.740Z,18.13
2019-03-27T13:13:16.091Z,20.47
2019-03-27T13:15:48.161Z,19.37
2019-03-27T13:18:19.427Z,18.80
2019-03-27T13:20:55.546Z,18.20
2019-03-27T13:23:26.523Z,15.43
2019-03-27T13:25:57.759Z,21.07
2019-03-27T13:28:29.065Z,17.47
2019-03-27T13:31:03.240Z,17.50
2019-03-27T13:33:34.424Z,20.60
2019-03-27T13:36:08.551Z,21.20
2019-03-27T13:38:39.558Z,21.53
2019-03-27T13:41:10.680Z,22.60
2019-03-27T13:43:41.822Z,19.20
2019-03-27T13:46:12.831Z,20.50
2019-03-27T13:48:43.810Z,17.63
2019-03-27T13:51:14.738Z,19.17
2019-03-27T13:53:46.097Z,17.03
2019-03-27T13:56:16.945Z,28.80
2019-03-27T13:58:48.348Z,19.60
2019-03-27T14:01:19.432Z,17.90
2019-03-27T14:03:50.564Z,18.90
2019-03-27T14:06:21.915Z,19.30
2019-03-27T14:08:53.215Z,23.33
2019-03-27T14:11:24.170Z,19.93
2019-03-27T14:13:55.275Z,19.57
2019-03-27T14:16:27.324Z,24.00
2019-03-27T14:18:58.340Z,19.17
2019-03-27T14:21:29.678Z,27.03
2019-03-27T14:24:00.608Z,24.00
2019-03-27T14:26:44.360Z,24.57
2019-03-27T14:29:04.305Z,37.47
2019-03-27T14:31:35.742Z,22.87
2019-03-27T14:34:06.813Z,22.60
2019-03-27T14:36:38.124Z,26.83
2019-03-27T14:39:09.840Z,24.03
2019-03-27T14:41:41.297Z,22.00
2019-03-27T14:44:12.328Z,19.30
2019-03-27T14:46:43.425Z,17.37
2019-03-27T14:49:14.469Z,14.83
2019-03-27T14:51:45.497Z,30.60
2019-03-27T14:54:16.265Z,20.17
2019-03-27T14:56:47.218Z,19.10
2019-03-27T14:59:18.475Z,17.53
2019-03-27T15:01:49.884Z,15.03
2019-03-27T15:04:20.910Z,16.23
2019-03-27T15:06:51.938Z,16.77
2019-03-27T15:09:22.787Z,13.90
2019-03-27T15:11:53.614Z,16.80
2019-03-27T15:14:24.466Z,15.20
2019-03-27T15:16:56.313Z,11.10
2019-03-27T15:19:27.406Z,10.63
2019-03-27T15:21:58.269Z,8.83
2019-03-27T15:24:29.378Z,10.03
2019-03-27T15:27:00.333Z,12.50
2019-03-27T15:29:31.804Z,10.07
2019-03-27T15:32:03.359Z,13.53
2019-03-27T15:34:34.280Z,9.47
2019-03-27T15:37:05.587Z,21.90
2019-03-27T15:39:36.435Z,16.13
2019-03-27T15:42:09.259Z,10.20
2019-03-27T15:44:40.281Z,16.70
2019-03-27T15:47:11.257Z,12.40
2019-03-27T15:49:42.136Z,13.43
2019-03-27T15:52:14.168Z,17.83
2019-03-27T15:54:44.967Z,10.80
2019-03-27T15:57:16.015Z,9.60
2019-03-27T15:59:48.860Z,13.93
2019-03-27T16:02:20.406Z,10.73
2019-03-27T16:04:51.983Z,10.60
2019-03-27T16:07:23.104Z,11.40
2019-03-27T16:09:53.994Z,13.03
2019-03-27T16:12:25.011Z,10.20
2019-03-27T16:14:56.333Z,6.80
2019-03-27T16:17:28.008Z,10.60
2019-03-27T16:19:59.283Z,16.50
2019-03-27T16:22:30.735Z,7.47
2019-03-27T16:25:01.634Z,13.57
2019-03-27T16:27:32.492Z,12.10
2019-03-27T16:30:03.477Z,10.50
2019-03-27T16:32:34.230Z,10.73
2019-03-27T16:35:05.667Z,9.60
2019-03-27T16:37:36.633Z,7.30
2019-03-27T16:40:10.095Z,10.20
2019-03-27T16:42:41.243Z,16.73
2019-03-27T16:45:12.623Z,8.80
2019-03-27T16:47:45.383Z,10.73
2019-03-27T16:50:16.941Z,8.17
2019-03-27T16:52:47.772Z,24.40
2019-03-27T16:55:18.565Z,18.27
2019-03-27T16:57:51.416Z,9.57
2019-03-27T17:00:22.644Z,19.00
2019-03-27T17:02:53.894Z,10.60
2019-03-27T17:05:24.878Z,10.70
2019-03-27T17:07:55.899Z,12.20
2019-03-27T17:10:28.019Z,8.27
2019-03-27T17:12:59.160Z,28.80
2019-03-27T17:15:30.184Z,7.70
2019-03-27T17:18:01.186Z,10.67
2019-03-27T17:20:32.265Z,10.90
2019-03-27T17:23:17.088Z,11.60
2019-03-27T17:25:36.220Z,10.63
2019-03-27T17:28:07.392Z,8.70
2019-03-27T17:30:38.361Z,13.07
2019-03-27T17:33:09.573Z,5.40
2019-03-27T17:35:40.700Z,8.50
2019-03-27T17:38:11.680Z,12.07
2019-03-27T17:40:42.869Z,7.63
2019-03-27T17:43:14.136Z,9.13
2019-03-27T17:45:45.264Z,6.83
2019-03-27T17:48:16.464Z,6.70
2019-03-27T17:50:47.663Z,6.90
2019-03-27T17:53:31.125Z,16.30
2019-03-27T17:55:51.515Z,6.83
2019-03-27T17:58:22.539Z,12.93
2019-03-27T18:01:00.244Z,18.40
2019-03-27T18:03:31.546Z,15.50
2019-03-27T18:06:02.758Z,11.63
2019-03-27T18:08:34.920Z,18.10
2019-03-27T18:11:08.112Z,10.23
2019-03-27T18:13:38.732Z,13.33
2019-03-27T18:16:09.818Z,9.30
2019-03-27T18:18:41.318Z,9.33
2019-03-27T18:21:14.985Z,8.20
2019-03-27T18:23:46.799Z,7.37
2019-03-27T18:26:18.430Z,6.90
2019-03-27T18:28:49.583Z,11.03
2019-03-27T18:31:20.659Z,12.43
2019-03-27T18:33:53.707Z,5.63
2019-03-27T18:36:24.850Z,8.50
2019-03-27T18:38:55.880Z,18.17
2019-03-27T18:41:27.964Z,6.03
2019-03-27T18:43:59.044Z,5.63
2019-03-27T18:46:30.577Z,5.73
2019-03-27T18:49:01.672Z,6.30
2019-03-27T18:51:32.654Z,5.53
2019-03-27T18:54:03.944Z,6.63
2019-03-27T18:56:35.156Z,6.93
2019-03-27T18:59:06.064Z,6.60
2019-03-27T19:01:37.301Z,7.63
2019-03-27T19:04:08.594Z,4.43
2019-03-27T19:06:39.875Z,5.60
2019-03-27T19:09:11.423Z,5.93
2019-03-27T19:11:42.490Z,6.20
2019-03-27T19:14:13.551Z,8.03
2019-03-27T19:16:44.861Z,6.20
2019-03-27T19:19:15.851Z,9.60
2019-03-27T19:21:47.745Z,14.83
2019-03-27T19:24:18.589Z,7.67
2019-03-27T19:26:49.540Z,6.27
2019-03-27T19:29:20.667Z,6.37
2019-03-27T19:31:51.928Z,6.07
2019-03-27T19:34:22.903Z,5.33
2019-03-27T19:36:53.895Z,4.33
2019-03-27T19:39:24.784Z,11.60
2019-03-27T19:41:55.673Z,9.43
2019-03-27T19:44:26.650Z,4.83
2019-03-27T19:46:58.110Z,10.57
2019-03-27T19:49:29.189Z,9.87
2019-03-27T19:52:00.526Z,13.57
2019-03-27T19:54:31.560Z,8.47
2019-03-27T19:57:02.462Z,10.27
2019-03-27T19:59:33.327Z,4.53
2019-03-27T20:02:04.258Z,5.70
2019-03-27T20:04:35.827Z,6.03
2019-03-27T20:07:06.691Z,8.07
2019-03-27T20:09:37.542Z,11.33
2019-03-27T20:12:08.566Z,20.73
2019-03-27T20:14:42.328Z,10.50
2019-03-27T20:17:11.867Z,7.90
2019-03-27T20:19:43.151Z,7.00
2019-03-27T20:22:15.604Z,9.60
2019-03-27T20:24:46.323Z,4.63
2019-03-27T20:27:17.240Z,4.83
2019-03-27T20:29:47.768Z,5.47
2019-03-27T20:32:18.371Z,4.00
2019-03-27T20:34:51.058Z,8.83
2019-03-27T20:37:21.714Z,4.87
2019-03-27T20:39:52.330Z,4.03
2019-03-27T20:42:23.218Z,4.20
2019-03-27T20:44:53.767Z,7.73
2019-03-27T20:47:25.173Z,8.90
2019-03-27T20:49:56.119Z,7.73
2019-03-27T20:52:27.068Z,5.23
2019-03-27T20:54:57.720Z,3.70
2019-03-27T20:57:28.506Z,6.43
2019-03-27T20:59:59.226Z,7.33
2019-03-27T21:02:29.893Z,3.47
2019-03-27T21:05:00.774Z,17.00
2019-03-27T21:07:31.576Z,7.30
2019-03-27T21:10:02.762Z,5.13
2019-03-27T21:12:33.779Z,5.33
2019-03-27T21:15:05.032Z,5.13
2019-03-27T21:17:36.060Z,6.20
2019-03-27T21:20:07.834Z,6.57
2019-03-27T21:22:39.684Z,4.40
2019-03-27T21:25:11.402Z,6.10
2019-03-27T21:27:43.828Z,7.77
2019-03-27T21:30:15.168Z,3.97
2019-03-27T21:32:46.126Z,5.50
2019-03-27T21:35:17.197Z,5.83
2019-03-27T21:37:48.064Z,11.37
2019-03-27T21:40:19.453Z,4.73
2019-03-27T21:42:51.532Z,5.87
2019-03-27T21:45:22.745Z,5.70
2019-03-27T21:47:53.606Z,9.37
2019-03-27T21:50:24.459Z,5.13
2019-03-27T21:53:00.824Z,5.00
2019-03-27T21:55:41.910Z,6.93
2019-03-27T21:58:01.783Z,6.90
2019-03-27T22:00:41.004Z,8.17
2019-03-27T22:03:12.040Z,8.93
2019-03-27T22:05:42.985Z,6.67
2019-03-27T22:08:13.978Z,8.13
2019-03-27T22:10:44.884Z,6.13
2019-03-27T22:13:15.866Z,10.90
2019-03-27T22:15:46.808Z,11.00
2019-03-27T22:18:19.045Z,11.87
2019-03-27T22:20:50.214Z,8.80
2019-03-27T22:23:21.120Z,11.20
2019-03-27T22:25:52.055Z,16.87
2019-03-27T22:28:22.992Z,12.50
2019-03-27T22:30:54.514Z,16.87
2019-03-27T22:33:25.357Z,10.00
2019-03-27T22:35:56.294Z,8.63
2019-03-27T22:38:27.057Z,6.67
2019-03-27T22:40:58.363Z,10.30
2019-03-27T22:43:29.265Z,8.27
2019-03-27T22:45:59.990Z,6.70
2019-03-27T22:48:31.080Z,9.20
2019-03-27T22:51:02.021Z,11.77
2019-03-27T22:53:32.810Z,9.67
2019-03-27T22:56:03.921Z,11.33
2019-03-27T22:58:34.696Z,21.33
2019-03-27T23:01:05.678Z,6.73
2019-03-27T23:03:36.496Z,10.07
2019-03-27T23:06:07.429Z,8.90
2019-03-27T23:09:30.840Z,14.13
2019-03-27T23:12:01.713Z,11.50
2019-03-27T23:14:32.732Z,10.10
2019-03-27T23:17:03.706Z,6.53
2019-03-27T23:19:34.729Z,9.60
2019-03-27T23:22:05.785Z,8.13
2019-03-27T23:24:37.617Z,7.40
2019-03-27T23:27:08.590Z,6.90
2019-03-27T23:29:40.980Z,9.07
2019-03-27T23:32:12.082Z,9.83
2019-03-27T23:34:43.090Z,8.60
2019-03-27T23:37:14.077Z,8.50
2019-03-27T23:39:46.252Z,11.27
2019-03-27T23:42:17.189Z,8.00
2019-03-27T23:44:48.225Z,8.00
2019-03-27T23:47:19.003Z,7.80
2019-03-27T23:49:50.298Z,9.30
2019-03-27T23:52:21.110Z,10.30
2019-03-27T23:54:51.917Z,7.03
2019-03-27T23:57:22.703Z,8.00
2019-03-27T23:59:53.580Z,8.77
